• Join FlightAware (Why Join?)
  • Login
  • US Flag 
02:10PM EST


 

Airport Tracker/Info


-or-


 

Live Flight TrackerFlight Track Log ✈ N867CH ✈ 30-Nov-2013 ✈ KFFC - 71J

Flight Track Log - Related Links

Times and Time Zones

All times are in EST time to prevent confusion due to time zone crossing. See the N867CH flight status page for this flight to view local times or setup timezone preferences in your user account.

Time Position Orientation Groundspeed Altitude Reporting Facility
EST Latitude Longitude Course Direction KTS MPH feet Rate Location/Type
10:00PM 32.6500 -84.9667 220° Southwest 88 101 2,700  Level Atlanta TRACON
10:01PM 32.6333 -84.9833 220° Southwest 87 100 2,800  Climbing Atlanta TRACON
10:02PM 32.6167 -85.0000 220° Southwest 88 101 2,700  Descending Atlanta TRACON
10:03PM 32.6000 -85.0167 220° Southwest 87 100 2,800  Climbing Atlanta TRACON
10:04PM 32.5667 -85.0333 203° Southwest 91 105 2,700 -60 Descending Atlanta TRACON
10:05PM 32.5500 -85.0500 220° Southwest 89 102 2,700  Level Atlanta TRACON
10:06PM 32.5167 -85.0500 180° South 88 101 2,700  Level Atlanta TRACON
10:07PM 32.5000 -85.0667 220° Southwest 85 98 2,700  Level Atlanta TRACON
10:08PM 32.4833 -85.0833 220° Southwest 90 104 2,700  Level Atlanta TRACON
10:09PM 32.4667 -85.0833 180° South 86 99 2,700  Level Atlanta TRACON
10:10PM 32.4333 -85.1000 203° Southwest 88 101 2,700  Level Atlanta TRACON
10:11PM 32.4167 -85.1167 220° Southwest 87 100 2,700  Level Atlanta TRACON
10:12PM 32.4000 -85.1167 180° South 86 99 2,800  Climbing Atlanta TRACON
10:13PM 32.3667 -85.1333 203° Southwest 85 98 2,800  Level Atlanta TRACON
10:14PM 32.3500 -85.1500 220° Southwest 89 102 2,800  Level Atlanta TRACON
10:15PM 32.3167 -85.1500 180° South 89 102 2,800  Level Atlanta TRACON
10:16PM 32.3000 -85.1667 220° Southwest 87 100 2,800 -60 Level Atlanta TRACON
10:17PM 32.2833 -85.1667 180° South 89 102 2,700  Descending Atlanta TRACON
10:18PM 32.2500 -85.1833 203° Southwest 88 101 2,800  Climbing Atlanta TRACON
10:19PM 32.2333 -85.1833 180° South 85 98 2,800 -60 Level Atlanta TRACON
10:20PM 32.2167 -85.2000 220° Southwest 88 101 2,700  Descending Atlanta TRACON
10:21PM 32.1833 -85.2167 203° Southwest 83 96 2,800  Climbing Atlanta TRACON
10:22PM 32.1667 -85.2167 180° South 88 101 2,800  Level Atlanta TRACON
10:23PM 32.1500 -85.2333 220° Southwest 85 98 2,800  Level Atlanta TRACON
10:24PM 32.1167 -85.2500 203° Southwest 87 100 2,800  Level Atlanta TRACON
10:25PM 32.1000 -85.2667 220° Southwest 87 100 2,800  Level Atlanta TRACON
10:26PM 32.0833 -85.2667 180° South 86 99 2,800  Level Atlanta TRACON
10:27PM 32.0667 -85.2833 220° Southwest 85 98 2,800 -60 Level Atlanta TRACON
10:28PM 32.0333 -85.2833 180° South 86 99 2,700 -60 Descending Atlanta TRACON
10:29PM 32.0167 -85.3000 220° Southwest 86 99 2,700  Level Atlanta TRACON
10:30PM 31.9972 -85.3106 205° Southwest 86 99 2,800  Climbing Jacksonville Center
10:31PM 31.9742 -85.3219 203° Southwest 85 98 2,700  Descending Jacksonville Center
10:32PM 31.9508 -85.3336 203° Southwest 84 97 2,800  Climbing Jacksonville Center
10:33PM 31.9319 -85.3453 208° Southwest 85 98 2,800  Level Jacksonville Center
10:34PM 31.9086 -85.3594 207° Southwest 87 100 2,800  Level Jacksonville Center
10:35PM 31.8856 -85.3661 194° South 85 98 2,800 -60 Level Jacksonville Center
10:36PM 31.8625 -85.3753 199° South 89 102 2,700  Descending Jacksonville Center
10:37PM 31.8414 -85.3869 205° Southwest 85 98 2,800  Climbing Jacksonville Center
10:38PM 31.8181 -85.4036 211° Southwest 86 99 2,800 -60 Level Jacksonville Center
10:39PM 31.7950 -85.4150 203° Southwest 90 104 2,700  Descending Jacksonville Center
10:40PM 31.7739 -85.4242 200° South 85 98 2,800  Climbing Jacksonville Center
10:41PM 31.7506 -85.4383 207° Southwest 89 102 2,800  Level Jacksonville Center
10:42PM 31.7314 -85.4525 212° Southwest 88 101 2,800  Level Jacksonville Center
10:43PM 31.7083 -85.4664 207° Southwest 90 104 2,800  Level Jacksonville Center
10:44PM 31.6892 -85.4831 217° Southwest 89 102 2,800  Level Jacksonville Center
10:45PM 31.6658 -85.4994 211° Southwest 89 102 2,800 -60 Level Jacksonville Center
10:46PM 31.6447 -85.5111 205° Southwest 90 104 2,700 -60 Descending Jacksonville Center
10:47PM 31.6214 -85.5250 207° Southwest 89 102 2,700  Level Jacksonville Center
10:48PM 31.6003 -85.5414 213° Southwest 92 106 2,800  Climbing Jacksonville Center
10:49PM 31.5792 -85.5556 210° Southwest 85 98 2,800 -60 Level Jacksonville Center
10:50PM 31.5558 -85.5719 211° Southwest 92 106 2,700 -120 Descending Jacksonville Center